首页
METAR-TAF:

METAR-TAF

机场 :

比利·畢曉普多倫多市機場

多伦多 City Centre, 安大略省, 加拿大

纬度: 43-38N, 经度: 079-24W, 海拔: 77米

当前天气观测

该预报发布于45分钟前的08:00 UTC
风速11节,风向西
温度 -6°C
湿度 62%
气压 1035 hPa
能見度: 14.5公里
天空无云

METAR: CYTZ 120800Z AUTO 26011KT 9SM CLR M06/M12 A3057 RMK SLP357

时间: 03:45 (08:45 UTC)

预报

该预报发布于1小时和7分钟前的07:38 UTC
预报有效从12日的 08点(UTC)到 13日的 08点(UTC)
风速12节,风向西
能見度: 10公里
少量云层高于4000英尺
从 12日的 1400点(UTC)
风速10节,风向西转西南
能見度: 10公里
多云层高于20000英尺
从 12日的 1700点(UTC)
风速10节,风向西南
能見度: 10公里
散云层高于2500英尺
多云层高于15000英尺
短暂存在
从 12日的 17点(UTC)到 12日的 22点(UTC)
多云层高于2000英尺
多云层高于15000英尺
从 12日的 2200点(UTC)
风速12节,风向
能見度: 10公里
多云层高于20000英尺
从 13日的 0400点(UTC)
风速12节,风向西南
能見度: 10公里
多云层高于24000英尺

TAF: CYTZ 120738Z 1208/1308 27012KT P6SM FEW040 FM121400 25010KT P6SM BKN200 FM121700 22010KT P6SM SCT025 BKN150 TEMPO 1217/1222 BKN020 BKN150 FM122200 18012KT P6SM BKN200 FM130400 22012KT P6SM BKN240 RMK FCST BASED ON AUTO OBS. NXT FCST BY 121400Z

超过4000个机场的气象观测和天气预报(METAR&TAF报告)。

可查询的气象台以黄色和红色小点在地图上表示。

将鼠标移到小点上方,可查看气象台名称。

然后点击查看天气观测和预报。

如需切换地图:点击带黑十字的绿色按钮放大地图;点击带横线的绿色按钮缩小地图;或者点击绿色箭头查看邻近地区的地图。


METAR-TAF: